WetterOnline ( https://www.wetteronline.de )

Wetter aktuell Brocken

Aktuelles Wetter: Brocken (1141m)

6-stündlich | Neueste Meldungen
Ortszeit Temperatur Wetter
Sa, 13.04. 2:00 8.6° C Nebel
Fr, 12.04. 20:00 8.3° C Nebel
Fr, 12.04. 14:00 11.1° C wolkig
Fr, 12.04. 8:00 6.1° C Nebel
Fr, 12.04. 2:00 6.3° C Nebel
Do, 11.04. 20:00 6.5° C leicht bewölkt
Do, 11.04. 14:00 5.5° C bedeckt
Do, 11.04. 8:00 2.6° C leicht bewölkt
Ortszeit Temperatur Wetter
Sa, 13.04. 5:30 8.0° C Nebel
Sa, 13.04. 5:20 8.0° C Nebel
Sa, 13.04. 5:10 8.0° C Nebel
Sa, 13.04. 5:00 8.3° C Nebel
Sa, 13.04. 4:50 8.3° C Nebel
Sa, 13.04. 4:40 8.3° C Nebel
Sa, 13.04. 4:30 8.4° C Nebel
Sa, 13.04. 4:00 8.5° C Nebel
Sa, 13.04. 3:30 8.6° C Nebel
Sa, 13.04. 3:00 8.7° C Nebel
Sa, 13.04. 2:30 8.6° C Nebel
Ortszeit Relative Feuchte Sichtweite
Sa, 13.04. 2:00 98% <100 m
Fr, 12.04. 20:00 97% 5.0 km
Fr, 12.04. 14:00 77% 35 km
Fr, 12.04. 8:00 99% <100 m
Fr, 12.04. 2:00 98% <100 m
Do, 11.04. 20:00 87% 50 km
Do, 11.04. 14:00 72% 50 km
Do, 11.04. 8:00 71% 60 km
Ortszeit Relative Feuchte Sichtweite
Sa, 13.04. 5:30 98% <100 m
Sa, 13.04. 5:20 98% -
Sa, 13.04. 5:10 98% -
Sa, 13.04. 5:00 99% <100 m
Sa, 13.04. 4:50 99% -
Sa, 13.04. 4:40 98% -
Sa, 13.04. 4:30 98% <100 m
Sa, 13.04. 4:00 98% <100 m
Sa, 13.04. 3:30 99% <100 m
Sa, 13.04. 3:00 99% <100 m
Sa, 13.04. 2:30 98% <100 m
Ortszeit Niederschlagsmenge Niederschlagsart
Sa, 13.04. 2:00 0.1 l/m2 in 6 Std. -
Fr, 12.04. 20:00 0.0 l/m2 in 12 Std. -
Fr, 12.04. 14:00 0.0 l/m2 in 6 Std. -
Fr, 12.04. 8:00 0.1 l/m2 in 12 Std. -
Fr, 12.04. 2:00 0.0 l/m2 in 6 Std. -
Do, 11.04. 20:00 0.0 l/m2 in 12 Std. -
Do, 11.04. 14:00 0.0 l/m2 in 6 Std. -
Do, 11.04. 8:00 0.0 l/m2 in 12 Std. -
Ortszeit Niederschlagsmenge Niederschlagsart
Sa, 13.04. 5:30 0.0 l/m2 in 30 Min -
Sa, 13.04. 5:20 keine Meldung -
Sa, 13.04. 5:10 keine Meldung -
Sa, 13.04. 5:00 0.0 l/m2 in 1 Std. -
Sa, 13.04. 4:50 keine Meldung -
Sa, 13.04. 4:40 keine Meldung -
Sa, 13.04. 4:30 0.0 l/m2 in 30 Min -
Sa, 13.04. 4:00 0.0 l/m2 in 1 Std. -
Sa, 13.04. 3:30 0.0 l/m2 in 30 Min -
Sa, 13.04. 3:00 0.1 l/m2 in 1 Std. -
Sa, 13.04. 2:30 0.1 l/m2 in 30 Min -
Ortszeit Stärke Spitze Richtung
km/h Bft. km/h Grad Sektor
Sa, 13.04. 2:00 54 7 70 270° W
Fr, 12.04. 20:00 47 6 68 250° W
Fr, 12.04. 14:00 37 5 59 250° W
Fr, 12.04. 8:00 43 6 54 240° SW
Fr, 12.04. 2:00 28 4 52 260° W
Do, 11.04. 20:00 29 5 50 250° W
Do, 11.04. 14:00 36 5 76 220° SW
Do, 11.04. 8:00 54 7 72 230° SW
Ortszeit Stärke Spitze Richtung
km/h Bft. km/h Grad Sektor
Sa, 13.04. 5:30 50 7 65 260° W
Sa, 13.04. 5:20 50 7 - 260° W
Sa, 13.04. 5:10 50 7 - 260° W
Sa, 13.04. 5:00 50 7 65 260° W
Sa, 13.04. 4:50 50 7 - 260° W
Sa, 13.04. 4:40 47 6 - 260° W
Sa, 13.04. 4:30 50 7 65 260° W
Sa, 13.04. 4:00 47 6 65 260° W
Sa, 13.04. 3:30 48 6 63 260° W
Sa, 13.04. 3:00 48 6 69 270° W
Sa, 13.04. 2:30 52 7 67 270° W
Ortszeit Untergrenze Bedeckung Gattung
total tief tief mittel hoch
Sa, 13.04. 2:00 <30 m 8/8 0/8 - - -
Fr, 12.04. 20:00 30 m 7/8 7/8 - - -
Fr, 12.04. 14:00 270 m 7/8 4/8 - - -
Fr, 12.04. 8:00 <30 m 8/8 0/8 - - -
Fr, 12.04. 2:00 <30 m 8/8 0/8 - - -
Do, 11.04. 20:00 8100 m 6/8 0/8 - - -
Do, 11.04. 14:00 1050 m 8/8 8/8 - - -
Do, 11.04. 8:00 8400 m 8/8 0/8 - - -
Ortszeit Bedeckungsgrad in Achtel und Wolkenuntergrenze
Sa, 13.04. 5:30 8(<30m)
Sa, 13.04. 5:20 8(<30m)
Sa, 13.04. 5:10 8
Sa, 13.04. 5:00 8(<30m)
Sa, 13.04. 4:50 8(<30m)
Sa, 13.04. 4:40 8
Sa, 13.04. 4:30 8(<30m)
Sa, 13.04. 4:00 8(<30m)
Sa, 13.04. 3:30 8(<30m)
Sa, 13.04. 3:00 8(<30m)
Sa, 13.04. 2:30 8(<30m)
Ortszeit Stationsdruck (hPa) Tendenz (hPa in 3 Std.)
Sa, 13.04. 2:00 895 - 0,5
Fr, 12.04. 20:00 896 - 0,7
Fr, 12.04. 14:00 898 - 0,2
Fr, 12.04. 8:00 898 - 0,5
Fr, 12.04. 2:00 899 - 0,2
Do, 11.04. 20:00 899 + 0,2
Do, 11.04. 14:00 899 + 0,9
Do, 11.04. 8:00 896 - 0,1
Ortszeit Stationsdruck (hPa) Tendenz (hPa in 3 Std.)
Sa, 13.04. 5:30 894 - 0,7
Sa, 13.04. 5:20 894 keine Meldung
Sa, 13.04. 5:10 894 keine Meldung
Sa, 13.04. 5:00 894 - 0,7
Sa, 13.04. 4:50 894 keine Meldung
Sa, 13.04. 4:40 895 keine Meldung
Sa, 13.04. 4:30 895 - 0,6
Sa, 13.04. 4:00 895 - 0,3
Sa, 13.04. 3:30 895 - 0,3
Sa, 13.04. 3:00 895 - 0,4
Sa, 13.04. 2:30 895 - 0,5
Ortszeit Schneehöhe (cm)
Sa, 13.04. 2:00 0
Fr, 12.04. 20:00 0
Fr, 12.04. 14:00 0
Fr, 12.04. 8:00 0
Fr, 12.04. 2:00 0
Do, 11.04. 20:00 0
Do, 11.04. 14:00 0
Do, 11.04. 8:00 0
Ortszeit Schneehöhe (cm)
Sa, 13.04. 5:30 0
Sa, 13.04. 5:20 0
Sa, 13.04. 5:10 -
Sa, 13.04. 5:00 0
Sa, 13.04. 4:50 0
Sa, 13.04. 4:40 -
Sa, 13.04. 4:30 0
Sa, 13.04. 4:00 0
Sa, 13.04. 3:30 0
Sa, 13.04. 3:00 0
Sa, 13.04. 2:30 0
Link zu dieser Seite / Seite empfehlen

Das Wetter in ...